Time;durP1;ratioP1;P1;durP2;ratioP2;P2;SDS_P1;SDS_P2;PMS_P1;PMS_P2;Temp;Humidity;BMP_temperature;BMP_pressure;BME280_temperature;BME280_humidity;BME280_pressure;Samples;Min_cycle;Max_cycle;Signal;HPM_P1;HPM_P2
2021/01/15 00:00:06;;;;;;;16.40;6.60;;;;;;;-0.17;75.75;99457.91;5076765;28;20040;-68
2021/01/15 00:02:34;;;;;;;14.00;6.30;;;;;;;-0.13;76.15;99459.75;5076808;28;20127;-68
2021/01/15 00:05:04;;;;;;;13.23;6.25;;;;;;;-0.13;76.02;99452.22;5076841;28;20138;-68
2021/01/15 00:07:31;;;;;;;16.52;6.63;;;;;;;-0.08;76.30;99452.41;5076713;28;20044;-68
2021/01/15 00:09:59;;;;;;;14.77;6.43;;;;;;;0.00;76.42;99451.88;5076639;28;20049;-68
2021/01/15 00:12:29;;;;;;;13.45;6.07;;;;;;;-0.02;76.39;99443.44;5076919;28;20040;-69
2021/01/15 00:14:57;;;;;;;14.90;5.93;;;;;;;0.08;76.56;99443.78;5076784;28;20090;-68
2021/01/15 00:17:25;;;;;;;14.60;6.03;;;;;;;0.09;76.34;99451.38;5076509;28;20037;-68
2021/01/15 00:19:53;;;;;;;13.68;6.55;;;;;;;0.09;76.48;99451.38;5076303;28;20517;-68
2021/01/15 00:22:23;;;;;;;11.33;4.87;;;;;;;0.10;76.63;99447.22;5076408;28;20521;-68
2021/01/15 00:24:50;;;;;;;14.70;6.38;;;;;;;0.12;76.78;99448.13;5076319;28;20040;-68
2021/01/15 00:27:18;;;;;;;18.52;6.95;;;;;;;-0.06;76.73;99414.03;5076347;28;20540;-69
2021/01/15 00:29:45;;;;;;;15.27;6.43;;;;;;;0.15;76.55;99435.66;5076240;28;20048;-68
2021/01/15 00:32:35;;;;;;;13.43;5.90;;;;;;;0.16;76.77;99442.41;5076602;28;20041;-68
2021/01/15 00:35:11;;;;;;;12.90;6.00;;;;;;;0.14;76.99;99439.00;5076219;28;20087;-68
2021/01/15 00:37:40;;;;;;;13.45;6.00;;;;;;;0.02;77.14;99413.47;5076155;28;20131;-69
2021/01/15 00:40:09;;;;;;;12.88;6.07;;;;;;;0.06;77.11;99413.63;5075981;28;20055;-68
2021/01/15 00:42:37;;;;;;;14.68;6.32;;;;;;;0.15;77.18;99431.50;5076122;28;20111;-69
2021/01/15 00:45:06;;;;;;;14.65;6.07;;;;;;;0.08;77.20;99431.22;5076298;28;20482;-68
2021/01/15 00:47:34;;;;;;;11.88;6.10;;;;;;;0.07;77.08;99424.53;5076016;28;20118;-68
2021/01/15 00:50:03;;;;;;;13.23;6.45;;;;;;;-0.04;77.58;99409.94;5075906;28;20056;-68
2021/01/15 00:52:30;;;;;;;16.63;6.63;;;;;;;-0.07;77.30;99429.88;5074432;28;20041;-70
2021/01/15 00:54:59;;;;;;;13.43;6.55;;;;;;;-0.25;77.60;99394.09;5076169;28;20114;-69
2021/01/15 00:57:35;;;;;;;14.40;6.32;;;;;;;-0.06;77.41;99430.72;5074609;28;20446;-68
2021/01/15 01:00:06;;;;;;;14.45;6.20;;;;;;;-0.10;77.55;99429.75;5073595;28;20047;-68
2021/01/15 01:03:07;;;;;;;12.50;6.63;;;;;;;-0.17;77.68;99434.50;5074668;28;20048;-69
2021/01/15 01:05:37;;;;;;;13.05;6.25;;;;;;;-0.17;77.64;99437.84;5075723;28;20524;-68
2021/01/15 01:08:05;;;;;;;14.20;6.53;;;;;;;-0.16;77.68;99434.56;5075544;28;20087;-69
2021/01/15 01:10:34;;;;;;;13.07;5.85;;;;;;;-0.14;77.49;99443.00;5075514;28;20044;-69
2021/01/15 01:13:02;;;;;;;12.95;6.18;;;;;;;-0.13;77.63;99439.69;5075447;28;20072;-69
2021/01/15 01:15:30;;;;;;;15.23;6.03;;;;;;;-0.11;77.97;99445.63;5075421;28;20535;-68
2021/01/15 01:17:58;;;;;;;13.73;5.95;;;;;;;-0.13;77.79;99443.84;5075485;28;20072;-68
2021/01/15 01:20:25;;;;;;;11.68;6.03;;;;;;;-0.07;77.81;99441.56;5075306;28;20131;-69
2021/01/15 01:22:53;;;;;;;16.75;7.03;;;;;;;-0.12;77.82;99441.38;5075214;28;20383;-68
2021/01/15 01:25:21;;;;;;;14.48;7.20;;;;;;;-0.24;77.83;99425.88;5075210;28;20124;-68
2021/01/15 01:27:49;;;;;;;14.35;6.65;;;;;;;-0.18;78.01;99441.16;5075085;28;20399;-68
2021/01/15 01:30:18;;;;;;;14.15;6.57;;;;;;;-0.15;77.89;99441.28;5075155;28;20552;-69
2021/01/15 01:32:45;;;;;;;15.80;6.97;;;;;;;-0.10;78.23;99439.78;5075939;28;20039;-69
2021/01/15 01:35:13;;;;;;;15.90;6.90;;;;;;;-0.10;78.19;99442.28;5075027;28;20406;-68
2021/01/15 01:37:41;;;;;;;13.35;6.40;;;;;;;-0.07;78.18;99439.91;5075012;28;20047;-68
2021/01/15 01:40:11;;;;;;;15.80;6.82;;;;;;;-0.10;78.44;99434.78;5074846;28;20106;-69
2021/01/15 01:42:39;;;;;;;14.48;5.90;;;;;;;-0.03;78.38;99441.75;5074939;28;20045;-68
2021/01/15 01:45:09;;;;;;;12.30;6.43;;;;;;;0.00;78.33;99446.03;5074787;28;20037;-69
2021/01/15 01:47:37;;;;;;;12.40;5.85;;;;;;;0.00;78.20;99451.88;5074915;28;20082;-68
2021/01/15 01:50:07;;;;;;;11.38;5.80;;;;;;;-0.20;78.18;99412.69;5074819;28;20124;-68
2021/01/15 01:52:37;;;;;;;13.48;5.85;;;;;;;0.03;78.47;99437.72;5074503;28;20052;-69
2021/01/15 01:55:07;;;;;;;11.95;5.88;;;;;;;0.10;78.19;99447.22;5074667;28;20106;-68
2021/01/15 01:57:35;;;;;;;11.32;6.03;;;;;;;0.07;78.29;99442.09;5074592;28;20494;-69
2021/01/15 02:00:05;;;;;;;11.55;6.07;;;;;;;0.05;78.31;99442.00;5074381;28;20051;-68
2021/01/15 02:02:40;;;;;;;13.13;6.60;;;;;;;-0.28;78.58;99386.47;5074570;28;20059;-69
2021/01/15 02:05:09;;;;;;;10.43;5.13;;;;;;;0.13;78.43;99442.28;5074412;28;20068;-68
2021/01/15 02:07:43;;;;;;;13.23;5.80;;;;;;;0.12;78.22;99441.44;5074462;28;20044;-68
2021/01/15 02:10:16;;;;;;;13.15;5.80;;;;;;;0.16;78.42;99442.41;5074242;28;20051;-68
2021/01/15 02:12:57;;;;;;;13.10;6.10;;;;;;;0.16;78.39;99444.91;5074304;28;20044;-68
2021/01/15 02:15:29;;;;;;;11.57;5.53;;;;;;;0.16;78.26;99437.38;5074307;28;20036;-68
2021/01/15 02:18:02;;;;;;;11.18;5.80;;;;;;;0.18;78.50;99440.81;5074564;28;20064;-68
2021/01/15 02:20:54;;;;;;;14.73;6.65;;;;;;;0.17;78.08;99439.13;5074154;28;20047;-69
2021/01/15 02:23:30;;;;;;;14.15;5.95;;;;;;;0.20;78.21;99441.72;5074198;28;20080;-69
2021/01/15 02:26:18;;;;;;;14.43;6.38;;;;;;;0.21;78.21;99441.78;5074173;28;20040;-69
2021/01/15 02:29:08;;;;;;;11.27;5.63;;;;;;;0.24;77.98;99441.03;5074082;28;20106;-69
2021/01/15 02:31:59;;;;;;;11.73;5.45;;;;;;;0.22;78.05;99442.63;5074547;28;20368;-68
2021/01/15 02:34:36;;;;;;;10.00;5.07;;;;;;;0.19;77.96;99455.06;5074025;28;20461;-68
2021/01/15 02:37:08;;;;;;;11.63;5.00;;;;;;;0.26;77.71;99455.34;5073871;28;20499;-68
2021/01/15 02:39:49;;;;;;;13.18;5.68;;;;;;;0.29;77.31;99455.44;5073888;28;20532;-68
2021/01/15 02:42:18;;;;;;;10.07;4.63;;;;;;;0.31;76.81;99453.00;5073870;28;20072;-68
2021/01/15 02:44:50;;;;;;;12.75;5.38;;;;;;;0.29;76.41;99457.13;5073797;28;20047;-68
2021/01/15 02:47:23;;;;;;;10.85;5.38;;;;;;;0.28;76.09;99457.91;5073813;28;20127;-69
2021/01/15 02:49:53;;;;;;;13.07;5.72;;;;;;;0.30;75.54;99456.31;5073793;28;20048;-68
2021/01/15 02:52:25;;;;;;;13.50;5.63;;;;;;;0.29;75.36;99454.59;5072316;28;20044;-68
2021/01/15 02:54:53;;;;;;;10.77;5.65;;;;;;;0.29;75.39;99449.59;5073664;28;20137;-68
2021/01/15 02:57:21;;;;;;;11.05;5.03;;;;;;;0.28;74.91;99442.84;5073965;28;20048;-68
2021/01/15 02:59:49;;;;;;;13.00;5.50;;;;;;;0.26;74.67;99445.31;5073516;28;20498;-68
2021/01/15 03:02:26;;;;;;;11.77;5.80;;;;;;;0.24;74.54;99441.03;5073592;28;20036;-69
2021/01/15 03:05:02;;;;;;;11.07;5.30;;;;;;;0.25;74.33;99445.25;5073627;28;20068;-68
2021/01/15 03:07:31;;;;;;;11.30;5.30;;;;;;;0.21;73.76;99443.44;5073636;28;20058;-68
2021/01/15 03:10:02;;;;;;;10.48;5.55;;;;;;;0.22;73.07;99442.63;5073507;28;20051;-68
2021/01/15 03:12:31;;;;;;;13.40;5.53;;;;;;;0.21;72.73;99440.91;5073863;28;20407;-69
2021/01/15 03:15:02;;;;;;;11.88;5.20;;;;;;;0.15;72.56;99426.50;5073523;28;20055;-68
2021/01/15 03:17:34;;;;;;;12.23;4.60;;;;;;;0.19;72.18;99438.38;5073478;28;20041;-69
2021/01/15 03:20:04;;;;;;;13.27;5.95;;;;;;;0.14;71.89;99436.50;5073341;28;20048;-68
2021/01/15 03:22:32;;;;;;;13.50;5.35;;;;;;;0.13;71.62;99442.28;5074963;28;20055;-69
2021/01/15 03:25:04;;;;;;;10.32;4.57;;;;;;;0.12;71.41;99450.63;5077568;28;20451;-68
2021/01/15 03:27:43;;;;;;;14.00;6.93;;;;;;;0.08;71.36;99446.28;5077509;28;20102;-69
2021/01/15 03:30:14;;;;;;;12.25;4.97;;;;;;;0.07;71.29;99452.13;5077547;28;20041;-69
2021/01/15 03:32:42;;;;;;;13.27;5.40;;;;;;;0.10;71.01;99448.03;5077493;28;20060;-68
2021/01/15 03:35:22;;;;;;;13.27;5.68;;;;;;;0.08;71.03;99448.78;5077369;28;20048;-68
2021/01/15 03:38:02;;;;;;;13.50;5.88;;;;;;;0.05;70.98;99448.69;5077395;28;20052;-68
2021/01/15 03:40:32;;;;;;;12.07;6.00;;;;;;;0.04;71.08;99442.81;5077228;28;20040;-68
2021/01/15 03:43:00;;;;;;;10.90;5.40;;;;;;;0.04;70.76;99441.97;5077558;28;20497;-68
2021/01/15 03:45:29;;;;;;;12.27;5.82;;;;;;;-0.01;71.15;99445.16;5077207;28;20053;-69
2021/01/15 03:47:57;;;;;;;15.13;6.05;;;;;;;-0.02;71.05;99440.94;5077059;28;20037;-68
2021/01/15 03:50:26;;;;;;;11.07;5.15;;;;;;;0.03;71.11;99445.25;5077056;28;20494;-69
2021/01/15 03:52:54;;;;;;;12.75;6.35;;;;;;;0.00;71.02;99446.84;5076775;28;20072;-68
2021/01/15 03:55:21;;;;;;;14.05;6.10;;;;;;;-0.04;71.09;99454.22;5076890;28;20380;-68
2021/01/15 03:57:49;;;;;;;13.68;5.32;;;;;;;-0.09;71.03;99456.56;5076844;28;20405;-68
2021/01/15 04:00:18;;;;;;;14.40;5.82;;;;;;;-0.11;71.13;99463.16;5076774;28;20082;-68
2021/01/15 04:02:45;;;;;;;12.68;5.72;;;;;;;-0.13;71.00;99469.78;5076748;28;20047;-69
2021/01/15 04:05:14;;;;;;;13.18;5.03;;;;;;;-0.30;71.19;99434.84;5076742;28;20583;-69
2021/01/15 04:07:43;;;;;;;12.65;5.55;;;;;;;-0.12;71.06;99470.66;5076674;28;20041;-69
2021/01/15 04:10:13;;;;;;;11.88;5.05;;;;;;;-0.13;70.86;99474.81;5076675;28;20045;-68
2021/01/15 04:12:41;;;;;;;13.00;5.30;;;;;;;-0.34;70.66;99451.44;5076568;28;20048;-68
2021/01/15 04:15:10;;;;;;;12.60;4.93;;;;;;;-0.12;70.62;99480.69;5076634;28;20051;-68
2021/01/15 04:17:39;;;;;;;12.45;5.13;;;;;;;-0.17;70.51;99482.97;5076550;28;20049;-68
2021/01/15 04:20:09;;;;;;;9.77;4.68;;;;;;;-0.20;70.69;99482.03;5076364;28;20090;-69
2021/01/15 04:22:40;;;;;;;13.60;5.97;;;;;;;-0.20;70.41;99477.00;5075354;28;20123;-68
2021/01/15 04:25:10;;;;;;;10.57;5.10;;;;;;;-0.19;70.46;99489.59;5076409;28;20054;-69
2021/01/15 04:27:39;;;;;;;9.30;3.95;;;;;;;-0.37;70.29;99460.47;5076338;28;20041;-68
2021/01/15 04:30:09;;;;;;;11.32;5.30;;;;;;;-0.24;70.19;99498.59;5076298;28;20049;-68
2021/01/15 04:32:44;;;;;;;11.82;5.15;;;;;;;-0.20;70.00;99497.06;5076260;28;20049;-68
2021/01/15 04:35:13;;;;;;;12.82;5.72;;;;;;;-0.18;69.86;99500.50;5074891;28;20429;-68
2021/01/15 04:37:40;;;;;;;16.35;6.32;;;;;;;-0.19;69.81;99498.75;5075014;28;20128;-69
2021/01/15 04:40:10;;;;;;;13.68;5.40;;;;;;;-0.21;69.69;99498.72;5075952;28;20048;-69
2021/01/15 04:42:42;;;;;;;11.07;5.18;;;;;;;-0.22;69.59;99507.06;5076118;28;20094;-69
2021/01/15 04:45:12;;;;;;;12.10;4.97;;;;;;;-0.21;69.50;99506.25;5076040;28;20102;-68
2021/01/15 04:47:43;;;;;;;13.13;5.20;;;;;;;-0.35;69.31;99502.34;5076070;28;20044;-68
2021/01/15 04:50:14;;;;;;;12.80;5.13;;;;;;;-0.25;69.41;99521.97;5075956;28;20074;-69
2021/01/15 04:52:46;;;;;;;12.40;5.05;;;;;;;-0.29;69.98;99515.09;5075685;28;20053;-69
2021/01/15 04:55:23;;;;;;;11.95;4.97;;;;;;;-0.31;69.64;99516.69;5075865;28;20124;-68
2021/01/15 04:57:52;;;;;;;10.25;4.78;;;;;;;-0.27;69.66;99521.06;5075847;28;20433;-68
2021/01/15 05:00:21;;;;;;;11.23;4.00;;;;;;;-0.26;69.60;99512.72;5076062;28;20136;-68
2021/01/15 05:02:50;;;;;;;13.32;5.07;;;;;;;-0.24;69.20;99527.84;5076339;28;20048;-68
2021/01/15 05:05:23;;;;;;;14.13;4.60;;;;;;;-0.30;69.20;99525.94;5075694;28;20048;-68
2021/01/15 05:08:14;;;;;;;11.68;4.63;;;;;;;-0.35;69.18;99522.41;5075611;28;20131;-68
2021/01/15 05:10:45;;;;;;;13.82;5.72;;;;;;;-0.34;69.05;99525.75;5073075;28;20124;-68
2021/01/15 05:13:14;;;;;;;11.60;4.63;;;;;;;-0.37;69.17;99526.50;5075543;28;20058;-68
2021/01/15 05:15:43;;;;;;;10.30;4.78;;;;;;;-0.35;68.74;99524.91;5075485;28;20402;-69
2021/01/15 05:18:12;;;;;;;15.00;6.55;;;;;;;-0.36;68.99;99528.19;5075409;28;20098;-68
2021/01/15 05:20:40;;;;;;;15.73;7.75;;;;;;;-0.42;69.30;99520.44;5090964;28;20498;-69
2021/01/15 05:23:09;;;;;;;13.82;6.15;;;;;;;-0.50;69.38;99531.81;5075187;28;20090;-69
2021/01/15 05:25:43;;;;;;;12.50;6.37;;;;;;;-0.43;69.68;99533.75;5075389;28;20045;-69
2021/01/15 05:28:14;;;;;;;11.40;4.80;;;;;;;-0.46;69.56;99535.31;5075226;28;20075;-68
2021/01/15 05:30:42;;;;;;;13.43;6.68;;;;;;;-0.78;69.53;99478.88;5075761;28;20094;-68
2021/01/15 05:33:13;;;;;;;10.25;4.82;;;;;;;-0.46;69.52;99533.66;5075069;28;20131;-68
2021/01/15 05:35:44;;;;;;;13.23;5.80;;;;;;;-0.51;69.65;99537.63;5075176;28;20045;-69
2021/01/15 05:38:14;;;;;;;13.52;5.72;;;;;;;-0.52;69.75;99537.53;5075028;28;20050;-69
2021/01/15 05:40:44;;;;;;;;;;;;;;;-0.49;69.61;99538.53;5075343;28;20498;-68
2021/01/15 05:43:24;;;;;;;14.27;5.70;;;;;;;-0.55;69.35;99533.25;5075249;28;19921;-68
2021/01/15 05:46:06;;;;;;;12.07;5.50;;;;;;;-0.54;69.37;99540.00;5074534;28;20515;-68
2021/01/15 05:48:35;;;;;;;12.93;5.57;;;;;;;-0.57;69.58;99537.38;5074837;28;20056;-68
2021/01/15 05:51:04;;;;;;;13.95;6.80;;;;;;;-0.58;69.42;99543.19;5073556;28;20064;-68
2021/01/15 05:53:42;;;;;;;17.05;8.27;;;;;;;-0.54;69.24;99551.66;5074517;28;20144;-68
2021/01/15 05:56:12;;;;;;;21.67;9.48;;;;;;;-0.49;69.10;99565.25;5074724;28;20094;-68
2021/01/15 05:59:00;;;;;;;26.50;14.30;;;;;;;-0.59;68.86;99550.63;5074545;28;20067;-68
2021/01/15 06:01:43;;;;;;;22.80;8.40;;;;;;;-0.50;69.18;99556.00;5074906;28;20071;-68
2021/01/15 06:04:13;;;;;;;16.38;7.32;;;;;;;-0.49;69.08;99553.56;5074454;28;20059;-68
2021/01/15 06:06:41;;;;;;;15.73;9.50;;;;;;;-0.48;69.15;99559.44;5074458;28;20051;-68
2021/01/15 06:09:12;;;;;;;22.70;11.90;;;;;;;-0.55;69.07;99563.34;5074351;28;20037;-68
2021/01/15 06:11:42;;;;;;;17.30;8.18;;;;;;;-0.63;69.23;99564.69;5074368;28;20049;-68
2021/01/15 06:14:22;;;;;;;13.13;6.65;;;;;;;-0.64;69.39;99575.50;5074347;28;20060;-69
2021/01/15 06:17:01;;;;;;;21.77;9.00;;;;;;;-0.63;69.40;99574.72;5074243;28;20052;-68
2021/01/15 06:19:44;;;;;;;32.30;18.40;;;;;;;-0.55;69.34;99578.38;5074213;28;20056;-68
2021/01/15 06:22:32;;;;;;;14.30;6.30;;;;;;;-0.56;69.58;99585.84;5074196;28;20097;-68
2021/01/15 06:25:13;;;;;;;14.38;6.07;;;;;;;-0.60;69.47;99573.97;5073990;28;20050;-68
2021/01/15 06:27:43;;;;;;;15.27;6.32;;;;;;;-0.61;69.39;99573.13;5074042;28;20131;-68
2021/01/15 06:30:14;;;;;;;14.20;5.53;;;;;;;-0.64;69.74;99578.00;5074012;28;20496;-68
2021/01/15 06:32:44;;;;;;;15.57;5.88;;;;;;;-0.64;69.93;99588.03;5073933;28;20044;-68
2021/01/15 06:35:24;;;;;;;15.15;6.32;;;;;;;-0.66;69.92;99594.63;5073958;28;20486;-68
2021/01/15 06:38:00;;;;;;;14.13;6.13;;;;;;;-0.68;70.00;99606.22;5073933;28;20044;-68
2021/01/15 06:40:36;;;;;;;23.55;7.07;;;;;;;-0.69;70.21;99604.50;5073872;28;20054;-69
2021/01/15 06:43:08;;;;;;;16.70;6.78;;;;;;;-0.69;70.35;99609.53;5073798;28;20136;-68
2021/01/15 06:45:39;;;;;;;17.45;6.68;;;;;;;-0.69;70.44;99617.03;5073855;28;20118;-68
2021/01/15 06:48:11;;;;;;;14.75;6.20;;;;;;;-0.65;70.48;99608.88;5073749;28;20048;-68
2021/01/15 06:50:40;;;;;;;17.17;6.63;;;;;;;-0.63;70.25;99601.41;5073737;28;20116;-68
2021/01/15 06:53:19;;;;;;;22.75;7.18;;;;;;;-0.62;70.67;99611.47;5073380;28;20052;-68
2021/01/15 06:55:49;;;;;;;14.50;6.03;;;;;;;-0.63;70.39;99624.81;5073766;28;20052;-68
2021/01/15 06:58:23;;;;;;;18.70;6.53;;;;;;;-0.60;70.69;99619.91;5072832;28;20121;-68
2021/01/15 07:01:15;;;;;;;16.60;6.15;;;;;;;-0.58;70.20;99623.38;5073636;28;20048;-68
2021/01/15 07:04:05;;;;;;;16.27;7.03;;;;;;;-0.54;70.28;99622.69;5073646;28;20135;-68
2021/01/15 07:06:34;;;;;;;12.73;5.40;;;;;;;-0.49;70.09;99617.88;5073616;28;20449;-68
2021/01/15 07:09:06;;;;;;;16.27;5.65;;;;;;;-0.49;70.02;99626.25;5073568;28;20071;-68
2021/01/15 07:11:40;;;;;;;15.65;6.28;;;;;;;-0.40;69.70;99634.16;5073893;28;20486;-69
2021/01/15 07:14:10;;;;;;;14.77;5.97;;;;;;;-0.37;69.27;99639.31;5073558;28;20049;-68
2021/01/15 07:16:41;;;;;;;12.50;5.53;;;;;;;-0.40;68.71;99623.25;5073565;28;20049;-68
2021/01/15 07:19:15;;;;;;;17.00;5.45;;;;;;;-0.40;68.29;99621.63;5073315;28;20113;-68
2021/01/15 07:22:10;;;;;;;12.52;6.07;;;;;;;-0.37;68.21;99633.41;5073478;28;20052;-68
2021/01/15 07:24:39;;;;;;;12.63;6.07;;;;;;;-0.44;68.15;99637.34;5073440;28;20540;-68
2021/01/15 07:27:10;;;;;;;13.13;5.20;;;;;;;-0.40;68.33;99644.19;5073372;28;20376;-68
2021/01/15 07:29:44;;;;;;;13.82;5.68;;;;;;;-0.37;68.31;99638.44;5073402;28;20049;-68
2021/01/15 07:32:20;;;;;;;13.40;5.15;;;;;;;-0.35;68.42;99640.22;5073350;28;20055;-68
2021/01/15 07:34:52;;;;;;;14.88;5.32;;;;;;;-0.22;68.23;99641.59;5073365;28;20437;-68
2021/01/15 07:37:25;;;;;;;12.20;5.15;;;;;;;-0.22;68.28;99644.97;5073330;28;20135;-68
2021/01/15 07:40:08;;;;;;;12.88;5.47;;;;;;;-0.16;68.22;99649.34;5073142;28;20036;-68
2021/01/15 07:42:42;;;;;;;13.45;5.55;;;;;;;-0.16;68.26;99654.34;5073261;28;20044;-68
2021/01/15 07:45:52;;;;;;;13.88;6.32;;;;;;;-0.16;68.55;99644.31;5073199;28;20045;-68
2021/01/15 07:48:21;;;;;;;13.50;5.53;;;;;;;-0.07;68.51;99650.56;5073161;28;20060;-68
2021/01/15 07:50:50;;;;;;;10.25;4.95;;;;;;;-0.10;68.49;99650.44;5073117;28;20119;-68
2021/01/15 07:53:40;;;;;;;8.75;4.40;;;;;;;-0.09;67.80;99649.66;5072781;28;20048;-68
2021/01/15 07:56:10;;;;;;;10.40;5.32;;;;;;;-0.37;67.81;99606.72;5073035;28;20052;-68
2021/01/15 07:58:46;;;;;;;34.25;17.60;;;;;;;-0.05;68.18;99664.03;5075421;28;20490;-68
2021/01/15 08:01:17;;;;;;;10.80;5.68;;;;;;;0.02;68.01;99664.28;5093194;28;20424;-68
2021/01/15 08:03:49;;;;;;;15.00;5.50;;;;;;;0.08;67.99;99659.50;5083254;28;20044;-68
2021/01/15 08:06:17;;;;;;;10.65;5.18;;;;;;;-0.05;67.65;99643.97;5083862;28;20053;-68
2021/01/15 08:09:02;;;;;;;12.90;4.95;;;;;;;0.20;67.72;99667.50;5073954;28;20059;-68
2021/01/15 08:11:31;;;;;;;10.68;4.68;;;;;;;-0.13;67.74;99615.22;5076632;28;20105;-68
2021/01/15 08:14:10;;;;;;;11.77;4.17;;;;;;;0.26;67.15;99676.16;5076539;28;20053;-68
2021/01/15 08:16:42;;;;;;;11.25;4.88;;;;;;;0.15;67.54;99657.31;5076842;28;20285;-68
2021/01/15 08:19:10;;;;;;;11.15;4.55;;;;;;;0.37;67.29;99686.59;5076459;28;20048;-69
2021/01/15 08:21:41;;;;;;;10.65;4.63;;;;;;;0.39;66.79;99693.41;5076785;28;20136;-69
2021/01/15 08:24:10;;;;;;;8.90;4.57;;;;;;;0.45;66.52;99697.81;5076416;28;20045;-69
2021/01/15 08:26:47;;;;;;;10.20;4.82;;;;;;;0.53;66.20;99697.31;5076352;28;20094;-69
2021/01/15 08:29:18;;;;;;;9.40;4.38;;;;;;;0.59;66.22;99696.69;5076299;28;20494;-69
2021/01/15 08:31:48;;;;;;;8.00;3.80;;;;;;;0.61;66.15;99690.94;5076284;28;20044;-68
2021/01/15 08:34:20;;;;;;;12.57;4.55;;;;;;;0.60;66.18;99698.44;5076297;28;20044;-68
2021/01/15 08:36:49;;;;;;;11.93;4.90;;;;;;;0.57;65.98;99698.28;5076176;28;20045;-68
2021/01/15 08:39:17;;;;;;;13.75;4.82;;;;;;;0.61;65.82;99692.59;5076043;28;20509;-68
2021/01/15 08:41:54;;;;;;;13.65;5.88;;;;;;;0.67;65.79;99700.38;5076139;28;20048;-68
2021/01/15 08:44:24;;;;;;;11.00;5.20;;;;;;;0.66;65.53;99703.66;5076099;28;20080;-68
2021/01/15 08:46:54;;;;;;;11.70;5.00;;;;;;;0.71;65.88;99702.19;5076028;28;20048;-68
2021/01/15 08:49:22;;;;;;;13.10;5.90;;;;;;;0.73;65.15;99710.63;5074817;28;20293;-68
2021/01/15 08:51:53;;;;;;;15.65;6.25;;;;;;;0.76;65.32;99699.84;5075760;28;20036;-69
2021/01/15 08:54:23;;;;;;;14.43;6.10;;;;;;;0.81;65.09;99706.78;5076024;28;20044;-67
2021/01/15 08:56:52;;;;;;;12.30;5.28;;;;;;;0.82;65.09;99710.97;5076135;28;20094;-68
2021/01/15 08:59:26;;;;;;;13.38;4.95;;;;;;;0.88;65.06;99721.28;5074551;28;20132;-67
2021/01/15 09:01:59;;;;;;;12.93;5.85;;;;;;;0.92;65.05;99723.09;5075745;28;20557;-67
2021/01/15 09:04:28;;;;;;;12.57;5.97;;;;;;;0.98;64.80;99714.94;5075768;28;20044;-68
2021/01/15 09:06:58;;;;;;;12.20;5.70;;;;;;;1.04;64.36;99720.19;5075348;28;20048;-67
2021/01/15 09:09:28;;;;;;;11.10;4.95;;;;;;;1.07;64.33;99725.31;5075678;28;20433;-67
2021/01/15 09:12:01;;;;;;;14.20;6.60;;;;;;;1.00;64.37;99726.75;5075515;28;20048;-68
2021/01/15 09:14:33;;;;;;;11.95;5.78;;;;;;;1.00;64.81;99721.75;5091237;28;20074;-67
2021/01/15 09:17:03;;;;;;;11.02;5.38;;;;;;;1.09;64.90;99722.06;5075516;28;20044;-67
2021/01/15 09:19:35;;;;;;;12.52;5.05;;;;;;;1.15;64.71;99726.47;5075201;28;20056;-67
2021/01/15 09:22:07;;;;;;;10.32;5.03;;;;;;;1.15;64.58;99729.81;5074872;28;20449;-67
2021/01/15 09:24:36;;;;;;;10.45;5.22;;;;;;;1.23;64.44;99728.47;5075361;28;20048;-67
2021/01/15 09:27:07;;;;;;;11.70;4.97;;;;;;;1.29;64.45;99741.28;5075226;28;20075;-67
2021/01/15 09:29:36;;;;;;;11.27;6.20;;;;;;;1.31;64.26;99734.63;5075529;28;20052;-67
2021/01/15 09:32:06;;;;;;;11.45;5.53;;;;;;;1.45;63.90;99731.75;5085319;28;20043;-67
2021/01/15 09:34:35;;;;;;;13.07;5.75;;;;;;;1.46;63.59;99733.47;5094546;28;20091;-69
2021/01/15 09:37:03;;;;;;;11.80;5.30;;;;;;;1.43;63.88;99723.28;5092466;28;20410;-67
2021/01/15 09:39:32;;;;;;;15.30;8.27;;;;;;;1.42;63.92;99734.19;5095198;28;20040;-67
2021/01/15 09:42:00;;;;;;;13.40;5.88;;;;;;;1.49;63.18;99728.56;5095260;28;20085;-67
2021/01/15 09:44:30;;;;;;;10.93;5.82;;;;;;;1.49;63.38;99734.41;5093967;28;20047;-67
2021/01/15 09:46:59;;;;;;;13.00;6.80;;;;;;;1.58;62.71;99733.91;5095099;28;20074;-68
2021/01/15 09:49:31;;;;;;;13.27;6.90;;;;;;;1.50;62.80;99705.13;5095028;28;20105;-67
2021/01/15 09:52:00;;;;;;;11.95;5.22;;;;;;;1.66;61.62;99735.03;5094199;28;20070;-67
2021/01/15 09:54:28;;;;;;;10.10;4.97;;;;;;;1.85;62.01;99724.78;5094898;28;20405;-66
2021/01/15 09:56:56;;;;;;;10.20;4.75;;;;;;;2.21;61.09;99730.22;5094869;28;20047;-66
2021/01/15 09:59:24;;;;;;;10.93;4.68;;;;;;;2.63;60.72;99731.59;5094846;28;20119;-66
2021/01/15 10:01:52;;;;;;;12.52;4.95;;;;;;;2.70;60.29;99724.28;5095019;28;20075;-66
2021/01/15 10:04:20;;;;;;;12.10;4.75;;;;;;;3.03;59.53;99733.66;5094699;28;20067;-66
2021/01/15 10:06:49;;;;;;;10.68;5.30;;;;;;;3.20;59.34;99725.78;5094733;28;20507;-66
2021/01/15 10:09:17;;;;;;;11.30;4.90;;;;;;;3.11;58.01;99717.09;5094519;28;20586;-66
2021/01/15 10:11:46;;;;;;;12.50;5.45;;;;;;;2.71;58.32;99680.63;5094881;28;20036;-66
2021/01/15 10:14:15;;;;;;;9.53;4.80;;;;;;;2.86;57.51;99717.16;5094562;28;20055;-66
2021/01/15 10:16:46;;;;;;;8.63;4.43;;;;;;;2.92;57.93;99714.84;5094921;28;20068;-66
2021/01/15 10:19:16;;;;;;;13.35;5.10;;;;;;;3.11;58.38;99712.91;5094589;28;20130;-66
2021/01/15 10:21:45;;;;;;;11.07;5.32;;;;;;;3.28;57.64;99713.41;5094287;28;20093;-66
2021/01/15 10:24:15;;;;;;;10.52;4.80;;;;;;;3.24;56.88;99714.09;5094440;28;20072;-65
2021/01/15 10:26:42;;;;;;;;;;;;;;;3.01;57.07;99720.16;5094745;28;20113;-65
2021/01/15 10:29:12;;;;;;;12.55;5.43;;;;;;;3.14;56.81;99715.50;5094286;28;19989;-66
2021/01/15 10:31:43;;;;;;;15.23;5.65;;;;;;;3.11;55.92;99712.06;5094161;28;20058;-65
2021/01/15 10:34:12;;;;;;;10.18;5.18;;;;;;;2.80;56.31;99654.00;5091641;28;20048;-66
2021/01/15 10:36:41;;;;;;;10.57;5.28;;;;;;;3.30;55.28;99714.28;5094146;28;20055;-65
2021/01/15 10:39:11;;;;;;;9.57;4.78;;;;;;;3.37;55.40;99714.53;5094240;28;20110;-66
2021/01/15 10:41:41;;;;;;;9.93;5.10;;;;;;;3.19;56.23;99710.63;5094020;28;20383;-65
2021/01/15 10:44:10;;;;;;;8.95;4.90;;;;;;;3.14;56.42;99707.13;5094040;28;20139;-65
2021/01/15 10:46:40;;;;;;;11.40;5.33;;;;;;;3.16;55.60;99672.72;5093820;28;20516;-65
2021/01/15 10:49:10;;;;;;;10.50;4.88;;;;;;;3.42;55.10;99703.69;5093796;28;20079;-66
2021/01/15 10:51:40;;;;;;;11.32;5.60;;;;;;;3.41;54.35;99695.25;5093831;28;20078;-65
2021/01/15 10:54:09;;;;;;;13.43;5.15;;;;;;;3.38;54.14;99695.19;5093945;28;20044;-65
2021/01/15 10:56:39;;;;;;;11.27;4.50;;;;;;;3.18;54.42;99696.28;5093825;28;20079;-65
2021/01/15 10:59:09;;;;;;;11.50;5.90;;;;;;;3.43;53.79;99691.16;5093946;28;20055;-65
2021/01/15 11:01:37;;;;;;;14.35;5.53;;;;;;;3.78;53.33;99695.47;5094016;28;20052;-65
2021/01/15 11:04:06;;;;;;;11.77;5.45;;;;;;;3.86;53.64;99681.34;5093681;28;20059;-65
2021/01/15 11:06:38;;;;;;;10.10;4.97;;;;;;;3.83;53.22;99683.81;5094150;28;20040;-64
2021/01/15 11:09:06;;;;;;;12.68;6.18;;;;;;;4.03;53.02;99677.59;5093703;28;20405;-64
2021/01/15 11:11:56;;;;;;;13.57;5.32;;;;;;;4.24;52.73;99666.31;5093810;28;20051;-65
2021/01/15 11:14:26;;;;;;;13.43;5.75;;;;;;;4.48;52.20;99666.88;5093563;28;20549;-65
2021/01/15 11:16:55;;;;;;;11.82;5.00;;;;;;;4.65;51.69;99675.72;5093705;28;20498;-66
2021/01/15 11:19:24;;;;;;;11.90;4.80;;;;;;;4.02;51.88;99579.94;5093633;28;20494;-66
2021/01/15 11:21:52;;;;;;;11.07;5.35;;;;;;;4.67;51.25;99669.00;5093515;28;20502;-66
2021/01/15 11:24:20;;;;;;;12.95;5.60;;;;;;;4.83;50.78;99649.97;5093543;28;20040;-66
2021/01/15 11:26:48;;;;;;;15.10;4.97;;;;;;;4.54;50.46;99611.41;5093604;28;20444;-67
2021/01/15 11:29:16;;;;;;;10.88;5.70;;;;;;;4.56;50.54;99666.22;5093483;28;20040;-67
2021/01/15 11:31:45;;;;;;;13.88;5.68;;;;;;;4.48;51.59;99670.28;5093480;28;20055;-67
2021/01/15 11:34:16;;;;;;;14.23;6.13;;;;;;;4.15;51.37;99666.09;5093487;28;20055;-67
2021/01/15 11:36:44;;;;;;;9.63;5.45;;;;;;;3.80;51.98;99663.53;5093438;28;20524;-67
2021/01/15 11:39:13;;;;;;;11.57;5.38;;;;;;;3.67;51.46;99666.53;5093396;28;20042;-66
2021/01/15 11:41:42;;;;;;;12.45;5.65;;;;;;;3.75;52.32;99656.66;5092192;28;20036;-67
2021/01/15 11:44:11;;;;;;;13.15;5.70;;;;;;;3.35;52.04;99664.84;5095343;28;20119;-66
2021/01/15 11:46:39;;;;;;;11.65;6.28;;;;;;;3.18;52.56;99664.38;5097362;28;20375;-66
2021/01/15 11:49:26;;;;;;;13.68;5.97;;;;;;;2.96;52.34;99669.63;5097420;28;20048;-67